Time,TemperatureF,DewpointF,PressureIn,WindDirection,WindDirectionDegrees,WindSpeedMPH,WindSpeedGustMPH,Humidity,HourlyPrecipIn,Conditions,Clouds,dailyrainin,SoftwareType,DateUTC
2013-02-14 00:00:00,32.2,27.3,29.63,SSE,157,2.9,5.1,82,0.00,,,0.00,WUHU21636XXSP,2013-02-14 05:00:00,
2013-02-14 00:05:00,32.0,27.1,29.63,SSE,157,2.6,5.1,82,0.00,,,0.00,WUHU21636XXSP,2013-02-14 05:05:00,
2013-02-14 00:10:00,32.0,27.3,29.63,South,180,4.2,13.8,83,0.00,,,0.00,WUHU21636XXSP,2013-02-14 05:10:00,
2013-02-14 00:15:00,32.2,27.5,29.63,South,180,2.6,13.8,83,0.00,,,0.00,WUHU21636XXSP,2013-02-14 05:15:00,
2013-02-14 00:20:00,32.0,27.3,29.63,South,180,2.9,4.2,83,0.00,,,0.00,WUHU21636XXSP,2013-02-14 05:20:00,
2013-02-14 00:25:00,32.0,27.3,29.63,South,180,2.4,2.9,83,0.00,,,0.00,WUHU21636XXSP,2013-02-14 05:25:00,
2013-02-14 00:30:00,31.8,27.1,29.63,South,180,1.5,10.9,83,0.00,,,0.00,WUHU21636XXSP,2013-02-14 05:30:00,
2013-02-14 00:35:00,31.8,27.1,29.63,SW,225,5.1,10.9,83,0.00,,,0.00,WUHU21636XXSP,2013-02-14 05:35:00,
2013-02-14 00:40:00,31.8,27.1,29.63,SSE,157,3.1,5.1,83,0.00,,,0.00,WUHU21636XXSP,2013-02-14 05:40:00,
2013-02-14 00:45:00,32.0,27.7,29.63,SSW,202,2.4,5.3,84,0.00,,,0.00,WUHU21636XXSP,2013-02-14 05:45:00,
2013-02-14 00:50:00,32.0,27.3,29.63,South,180,4.9,5.3,83,0.00,,,0.00,WUHU21636XXSP,2013-02-14 05:50:00,
2013-02-14 00:55:00,32.0,27.7,29.63,SSE,157,3.5,7.3,84,0.00,,,0.00,WUHU21636XXSP,2013-02-14 05:55:00,
2013-02-14 01:00:00,32.2,27.9,29.63,South,180,5.5,10.0,84,0.00,,,0.00,WUHU21636XXSP,2013-02-14 06:00:00,
2013-02-14 01:05:00,32.2,27.9,29.63,SSW,202,6.0,11.8,84,0.00,,,0.00,WUHU21636XXSP,2013-02-14 06:05:00,
2013-02-14 01:10:00,32.0,27.7,29.63,SW,225,8.5,11.8,84,0.00,,,0.00,WUHU21636XXSP,2013-02-14 06:10:00,
2013-02-14 01:15:00,32.0,27.7,29.63,SSE,157,3.5,14.9,84,0.00,,,0.00,WUHU21636XXSP,2013-02-14 06:15:00,
2013-02-14 01:20:00,31.8,27.5,29.63,South,180,3.5,14.9,84,0.00,,,0.00,WUHU21636XXSP,2013-02-14 06:20:00,
2013-02-14 01:25:00,31.8,27.5,29.63,South,180,0.0,4.4,84,0.00,,,0.00,WUHU21636XXSP,2013-02-14 06:25:00,
2013-02-14 01:30:00,31.8,27.5,29.63,South,180,2.4,4.4,84,0.00,,,0.00,WUHU21636XXSP,2013-02-14 06:30:00,
2013-02-14 01:35:00,31.8,27.5,29.63,SW,225,5.5,7.3,84,0.00,,,0.00,WUHU21636XXSP,2013-02-14 06:35:00,
2013-02-14 01:40:00,31.8,27.5,29.63,South,180,2.4,8.2,84,0.00,,,0.00,WUHU21636XXSP,2013-02-14 06:40:00,
2013-02-14 01:45:00,31.8,27.5,29.63,South,180,2.4,8.2,84,0.00,,,0.00,WUHU21636XXSP,2013-02-14 06:45:00,
2013-02-14 01:50:00,31.6,27.3,29.63,South,180,0.0,2.9,84,0.00,,,0.00,WUHU21636XXSP,2013-02-14 06:50:00,
2013-02-14 01:55:00,31.6,27.3,29.63,SSW,202,1.7,2.4,85,0.00,,,0.00,WUHU21636XXSP,2013-02-14 06:55:00,
2013-02-14 02:00:00,31.6,27.7,29.63,SSW,202,5.5,8.2,85,0.00,,,0.00,WUHU21636XXSP,2013-02-14 07:00:00,
2013-02-14 02:05:00,31.5,27.5,29.63,SSE,157,4.0,8.2,85,0.00,,,0.00,WUHU21636XXSP,2013-02-14 07:05:00,
2013-02-14 02:10:00,31.5,27.5,29.63,South,180,2.0,6.9,85,0.00,,,0.00,WUHU21636XXSP,2013-02-14 07:10:00,
2013-02-14 02:15:00,31.3,27.3,29.63,South,180,0.0,4.0,85,0.00,,,0.00,WUHU21636XXSP,2013-02-14 07:15:00,
2013-02-14 02:20:00,31.3,27.5,29.63,SSW,202,1.5,12.7,86,0.00,,,0.00,WUHU21636XXSP,2013-02-14 07:20:00,
2013-02-14 02:25:00,31.3,27.5,29.63,South,180,0.8,12.7,86,0.00,,,0.00,WUHU21636XXSP,2013-02-14 07:25:00,
2013-02-14 02:30:00,31.3,27.5,29.63,South,180,3.3,8.5,86,0.00,,,0.00,WUHU21636XXSP,2013-02-14 07:30:00,
2013-02-14 02:35:00,31.3,27.5,29.63,South,180,2.6,3.3,86,0.00,,,0.00,WUHU21636XXSP,2013-02-14 07:35:00,
2013-02-14 02:40:00,31.6,27.9,29.63,South,180,4.2,4.2,86,0.00,,,0.00,WUHU21636XXSP,2013-02-14 07:40:00,
2013-02-14 02:45:00,31.6,27.9,29.63,SSW,202,2.0,4.2,86,0.00,,,0.00,WUHU21636XXSP,2013-02-14 07:45:00,
2013-02-14 02:50:00,31.6,27.9,29.63,South,180,0.8,2.0,86,0.00,,,0.00,WUHU21636XXSP,2013-02-14 07:50:00,
2013-02-14 02:55:00,31.5,27.7,29.62,SSE,157,3.8,3.8,86,0.00,,,0.00,WUHU21636XXSP,2013-02-14 07:55:00,
2013-02-14 03:00:00,31.3,27.5,29.62,South,180,0.6,3.8,86,0.00,,,0.00,WUHU21636XXSP,2013-02-14 08:00:00,
2013-02-14 03:05:00,31.3,27.5,29.62,South,180,2.4,3.1,86,0.00,,,0.00,WUHU21636XXSP,2013-02-14 08:05:00,
2013-02-14 03:10:00,31.3,27.5,29.62,South,180,0.6,2.4,86,0.00,,,0.00,WUHU21636XXSP,2013-02-14 08:10:00,
2013-02-14 03:15:00,31.1,27.3,29.62,South,180,2.2,2.4,86,0.00,,,0.00,WUHU21636XXSP,2013-02-14 08:15:00,
2013-02-14 03:20:00,31.1,27.7,29.61,South,180,1.1,16.3,87,0.00,,,0.00,WUHU21636XXSP,2013-02-14 08:20:00,
2013-02-14 03:25:00,31.3,27.9,29.62,SSW,202,0.0,16.3,87,0.00,,,0.00,WUHU21636XXSP,2013-02-14 08:25:00,
2013-02-14 03:30:00,31.1,27.7,29.62,South,180,0.0,3.3,87,0.00,,,0.00,WUHU21636XXSP,2013-02-14 08:30:00,
2013-02-14 03:35:00,30.9,27.5,29.62,South,180,0.0,0.0,87,0.00,,,0.00,WUHU21636XXSP,2013-02-14 08:35:00,
2013-02-14 03:40:00,30.9,27.5,29.62,South,180,2.2,4.2,87,0.00,,,0.00,WUHU21636XXSP,2013-02-14 08:40:00,
2013-02-14 03:45:00,30.9,27.5,29.61,South,180,0.0,4.2,87,0.00,,,0.00,WUHU21636XXSP,2013-02-14 08:45:00,
2013-02-14 03:50:00,30.9,27.5,29.62,South,180,0.0,2.2,87,0.00,,,0.00,WUHU21636XXSP,2013-02-14 08:50:00,
2013-02-14 03:55:00,30.7,27.3,29.62,SSW,202,0.4,1.3,87,0.00,,,0.00,WUHU21636XXSP,2013-02-14 08:55:00,
2013-02-14 04:00:00,30.9,27.5,29.62,South,180,0.0,2.4,87,0.00,,,0.00,WUHU21636XXSP,2013-02-14 09:00:00,
2013-02-14 04:05:00,31.1,27.9,29.62,SSW,202,2.2,2.4,87,0.00,,,0.00,WUHU21636XXSP,2013-02-14 09:05:00,
2013-02-14 04:10:00,31.1,27.7,29.62,SW,225,1.1,10.2,87,0.00,,,0.00,WUHU21636XXSP,2013-02-14 09:10:00,
2013-02-14 04:15:00,31.1,27.7,29.62,SSE,157,0.0,10.2,87,0.00,,,0.00,WUHU21636XXSP,2013-02-14 09:15:00,
2013-02-14 04:20:00,31.3,27.9,29.62,SSE,157,0.0,2.6,87,0.00,,,0.00,WUHU21636XXSP,2013-02-14 09:20:00,
2013-02-14 04:25:00,31.1,27.7,29.61,SSE,157,0.0,2.6,87,0.00,,,0.00,WUHU21636XXSP,2013-02-14 09:25:00,
2013-02-14 04:30:00,31.1,27.7,29.61,SSE,157,0.0,0.0,87,0.00,,,0.00,WUHU21636XXSP,2013-02-14 09:30:00,
2013-02-14 04:35:00,31.1,27.7,29.61,SSE,157,0.0,0.0,87,0.00,,,0.00,WUHU21636XXSP,2013-02-14 09:35:00,
2013-02-14 04:40:00,31.1,27.7,29.61,SSE,157,0.0,0.0,87,0.00,,,0.00,WUHU21636XXSP,2013-02-14 09:40:00,
2013-02-14 04:45:00,30.9,27.5,29.61,SSE,157,0.0,0.0,87,0.00,,,0.00,WUHU21636XXSP,2013-02-14 09:45:00,
2013-02-14 04:50:00,30.9,27.5,29.61,SSE,157,0.0,0.0,87,0.00,,,0.00,WUHU21636XXSP,2013-02-14 09:50:00,
2013-02-14 04:55:00,31.1,27.7,29.61,SSE,157,0.0,3.1,87,0.00,,,0.00,WUHU21636XXSP,2013-02-14 09:55:00,
2013-02-14 05:00:00,31.1,27.7,29.61,SSE,157,4.4,4.4,87,0.00,,,0.00,WUHU21636XXSP,2013-02-14 10:00:00,
2013-02-14 05:05:00,31.1,27.7,29.61,SSE,157,1.7,4.4,87,0.00,,,0.00,WUHU21636XXSP,2013-02-14 10:05:00,
2013-02-14 05:10:00,31.3,27.9,29.61,SSE,157,0.0,4.4,88,0.00,,,0.00,WUHU21636XXSP,2013-02-14 10:10:00,
2013-02-14 05:15:00,31.3,27.9,29.60,SSE,157,0.0,1.7,88,0.00,,,0.00,WUHU21636XXSP,2013-02-14 10:15:00,
2013-02-14 05:20:00,31.3,27.9,29.60,SSE,157,1.3,1.5,88,0.00,,,0.00,WUHU21636XXSP,2013-02-14 10:20:00,
2013-02-14 05:25:00,31.3,27.9,29.61,SSE,157,0.0,1.5,88,0.00,,,0.00,WUHU21636XXSP,2013-02-14 10:25:00,
2013-02-14 05:30:00,31.3,27.9,29.61,SSE,157,0.0,1.3,88,0.00,,,0.00,WUHU21636XXSP,2013-02-14 10:30:00,
2013-02-14 05:35:00,31.3,27.9,29.61,SSE,157,0.0,0.0,88,0.00,,,0.00,WUHU21636XXSP,2013-02-14 10:35:00,
2013-02-14 05:40:00,31.1,27.9,29.61,SSE,157,0.0,0.0,88,0.00,,,0.00,WUHU21636XXSP,2013-02-14 10:40:00,
2013-02-14 05:45:00,31.1,27.9,29.61,SSE,157,0.0,0.0,88,0.00,,,0.00,WUHU21636XXSP,2013-02-14 10:45:00,
2013-02-14 05:50:00,31.1,27.9,29.61,SSE,157,0.0,0.0,88,0.00,,,0.00,WUHU21636XXSP,2013-02-14 10:50:00,
2013-02-14 05:55:00,31.1,27.9,29.61,SSE,157,0.0,0.0,88,0.00,,,0.00,WUHU21636XXSP,2013-02-14 10:55:00,
2013-02-14 06:00:00,31.1,27.9,29.61,SSE,157,0.0,0.0,88,0.00,,,0.00,WUHU21636XXSP,2013-02-14 11:00:00,
2013-02-14 06:05:00,31.1,27.9,29.61,SSE,157,0.0,0.0,88,0.00,,,0.00,WUHU21636XXSP,2013-02-14 11:05:00,
2013-02-14 06:11:00,31.1,27.9,29.60,SSE,157,0.0,0.0,88,0.00,,,0.00,WUHU21636XXSP,2013-02-14 11:11:00,
2013-02-14 06:16:00,31.1,27.9,29.60,SSE,157,0.0,0.0,88,0.00,,,0.00,WUHU21636XXSP,2013-02-14 11:16:00,
2013-02-14 06:21:00,31.1,27.9,29.60,SSE,157,0.0,0.0,88,0.00,,,0.00,WUHU21636XXSP,2013-02-14 11:21:00,
2013-02-14 06:26:00,30.9,27.7,29.61,SSE,157,0.0,0.0,88,0.00,,,0.00,WUHU21636XXSP,2013-02-14 11:26:00,
2013-02-14 06:32:00,30.9,27.7,29.60,SSE,157,0.0,0.0,88,0.00,,,0.00,WUHU21636XXSP,2013-02-14 11:32:00,
2013-02-14 06:37:00,30.9,27.7,29.60,SSE,157,0.0,0.0,88,0.00,,,0.00,WUHU21636XXSP,2013-02-14 11:37:00,
2013-02-14 06:42:00,30.9,27.7,29.60,SSE,157,0.0,0.0,88,0.00,,,0.00,WUHU21636XXSP,2013-02-14 11:42:00,
2013-02-14 06:47:00,30.9,27.7,29.60,SSE,157,0.0,0.0,89,0.00,,,0.00,WUHU21636XXSP,2013-02-14 11:47:00,
2013-02-14 06:52:00,30.9,27.7,29.60,SSE,157,0.0,0.0,89,0.00,,,0.00,WUHU21636XXSP,2013-02-14 11:52:00,
2013-02-14 06:57:00,30.9,27.7,29.60,SSE,157,0.0,0.0,89,0.00,,,0.00,WUHU21636XXSP,2013-02-14 11:57:00,
2013-02-14 07:02:00,30.9,27.7,29.60,SSE,157,0.0,0.0,89,0.00,,,0.00,WUHU21636XXSP,2013-02-14 12:02:00,
2013-02-14 07:07:00,30.9,27.7,29.60,SSE,157,0.0,0.0,89,0.00,,,0.00,WUHU21636XXSP,2013-02-14 12:07:00,
2013-02-14 07:12:00,30.9,27.7,29.60,SSE,157,0.0,0.0,89,0.00,,,0.00,WUHU21636XXSP,2013-02-14 12:12:00,
2013-02-14 07:17:00,30.9,27.7,29.60,SSE,157,0.0,0.0,89,0.00,,,0.00,WUHU21636XXSP,2013-02-14 12:17:00,
2013-02-14 07:22:00,30.9,27.7,29.60,SSE,157,0.0,0.0,89,0.00,,,0.00,WUHU21636XXSP,2013-02-14 12:22:00,
2013-02-14 07:27:00,30.9,27.7,29.60,SSE,157,0.0,0.0,89,0.00,,,0.00,WUHU21636XXSP,2013-02-14 12:27:00,
2013-02-14 07:32:00,30.9,27.7,29.60,SSE,157,0.0,0.0,89,0.00,,,0.00,WUHU21636XXSP,2013-02-14 12:32:00,
2013-02-14 07:37:00,31.1,28.2,29.60,SSE,157,0.0,0.0,89,0.00,,,0.00,WUHU21636XXSP,2013-02-14 12:37:00,
2013-02-14 07:42:00,31.1,28.2,29.60,SSE,157,0.0,0.0,89,0.00,,,0.00,WUHU21636XXSP,2013-02-14 12:42:00,
2013-02-14 07:47:00,31.1,28.2,29.60,SSE,157,0.0,0.0,89,0.00,,,0.00,WUHU21636XXSP,2013-02-14 12:47:00,
2013-02-14 07:52:00,31.1,28.2,29.60,SSE,157,0.0,0.0,89,0.00,,,0.00,WUHU21636XXSP,2013-02-14 12:52:00,
2013-02-14 07:57:00,31.1,28.2,29.60,SSE,157,0.0,0.0,89,0.00,,,0.00,WUHU21636XXSP,2013-02-14 12:57:00,
2013-02-14 08:02:00,31.3,28.4,29.61,SSE,157,0.0,0.0,89,0.00,,,0.00,WUHU21636XXSP,2013-02-14 13:02:00,
2013-02-14 08:07:00,31.3,28.4,29.60,SSE,157,0.0,0.0,89,0.00,,,0.00,WUHU21636XXSP,2013-02-14 13:07:00,
2013-02-14 08:12:00,31.5,28.6,29.60,SSE,157,0.0,0.0,89,0.00,,,0.00,WUHU21636XXSP,2013-02-14 13:12:00,
2013-02-14 08:17:00,31.3,28.4,29.61,South,180,0.0,0.0,89,0.00,,,0.00,WUHU21636XXSP,2013-02-14 13:17:00,
2013-02-14 08:22:00,31.5,28.6,29.61,SSE,157,0.0,0.0,89,0.00,,,0.00,WUHU21636XXSP,2013-02-14 13:22:00,
2013-02-14 08:27:00,31.6,28.8,29.61,SSE,157,0.0,0.0,89,0.00,,,0.00,WUHU21636XXSP,2013-02-14 13:27:00,
2013-02-14 08:32:00,31.6,28.8,29.61,SSE,157,0.0,0.0,89,0.00,,,0.00,WUHU21636XXSP,2013-02-14 13:32:00,
2013-02-14 08:37:00,31.6,28.8,29.61,SSE,157,0.0,0.0,89,0.00,,,0.00,WUHU21636XXSP,2013-02-14 13:37:00,
2013-02-14 08:42:00,31.6,28.8,29.61,SSE,157,0.0,0.0,88,0.00,,,0.00,WUHU21636XXSP,2013-02-14 13:42:00,
2013-02-14 08:47:00,31.6,28.8,29.61,SSE,157,0.0,0.0,88,0.00,,,0.00,WUHU21636XXSP,2013-02-14 13:47:00,
2013-02-14 08:52:00,31.8,28.6,29.61,SSE,157,0.0,0.0,88,0.00,,,0.00,WUHU21636XXSP,2013-02-14 13:52:00,
2013-02-14 08:57:00,31.8,28.6,29.61,SSE,157,0.0,0.0,88,0.00,,,0.00,WUHU21636XXSP,2013-02-14 13:57:00,
2013-02-14 09:02:00,31.8,28.6,29.61,SSE,157,0.0,0.0,88,0.00,,,0.00,WUHU21636XXSP,2013-02-14 14:02:00,
2013-02-14 09:07:00,32.0,28.8,29.61,SSE,157,0.0,0.0,88,0.00,,,0.00,WUHU21636XXSP,2013-02-14 14:07:00,
2013-02-14 09:12:00,32.2,29.3,29.60,SSE,157,0.0,0.0,89,0.00,,,0.00,WUHU21636XXSP,2013-02-14 14:12:00,
2013-02-14 09:17:00,32.4,29.5,29.60,SSE,157,0.0,0.0,89,0.00,,,0.00,WUHU21636XXSP,2013-02-14 14:17:00,
2013-02-14 09:22:00,32.4,29.5,29.61,SSE,157,0.0,0.0,89,0.00,,,0.00,WUHU21636XXSP,2013-02-14 14:22:00,
2013-02-14 09:27:00,32.4,29.5,29.61,SSE,157,0.0,0.0,89,0.00,,,0.00,WUHU21636XXSP,2013-02-14 14:27:00,
2013-02-14 09:32:00,32.4,29.5,29.60,SE,135,0.0,0.0,88,0.00,,,0.00,WUHU21636XXSP,2013-02-14 14:32:00,
2013-02-14 09:37:00,32.5,29.3,29.60,SE,135,0.0,0.0,88,0.00,,,0.00,WUHU21636XXSP,2013-02-14 14:37:00,
2013-02-14 09:42:00,32.5,29.3,29.60,SSE,157,0.0,0.0,88,0.00,,,0.00,WUHU21636XXSP,2013-02-14 14:42:00,
2013-02-14 09:47:00,32.5,29.3,29.60,SSE,157,0.0,0.0,88,0.00,,,0.00,WUHU21636XXSP,2013-02-14 14:47:00,
2013-02-14 09:52:00,32.5,29.3,29.60,SSE,157,0.0,0.0,88,0.00,,,0.00,WUHU21636XXSP,2013-02-14 14:52:00,
2013-02-14 09:57:00,32.7,29.5,29.60,SSE,157,0.0,0.0,88,0.00,,,0.00,WUHU21636XXSP,2013-02-14 14:57:00,
2013-02-14 10:02:00,33.1,29.8,29.60,SSE,157,0.0,0.0,88,0.00,,,0.00,WUHU21636XXSP,2013-02-14 15:02:00,
2013-02-14 10:07:00,33.1,29.8,29.60,SSE,157,0.0,0.0,88,0.00,,,0.00,WUHU21636XXSP,2013-02-14 15:07:00,
2013-02-14 10:12:00,33.1,29.8,29.60,SSE,157,0.0,0.0,88,0.00,,,0.00,WUHU21636XXSP,2013-02-14 15:12:00,
2013-02-14 10:17:00,33.3,30.0,29.59,SSE,157,2.6,2.6,88,0.00,,,0.00,WUHU21636XXSP,2013-02-14 15:17:00,
2013-02-14 10:22:00,33.3,29.7,29.59,South,180,0.8,3.8,87,0.00,,,0.00,WUHU21636XXSP,2013-02-14 15:22:00,
2013-02-14 10:27:00,33.4,29.8,29.59,SSE,157,4.6,4.6,87,0.00,,,0.00,WUHU21636XXSP,2013-02-14 15:27:00,
2013-02-14 10:32:00,33.4,29.8,29.59,SSE,157,2.6,4.6,87,0.00,,,0.00,WUHU21636XXSP,2013-02-14 15:32:00,
2013-02-14 10:37:00,33.1,29.5,29.59,South,180,4.2,7.8,87,0.00,,,0.00,WUHU21636XXSP,2013-02-14 15:37:00,
2013-02-14 10:42:00,33.3,30.0,29.59,South,180,1.7,7.8,88,0.00,,,0.00,WUHU21636XXSP,2013-02-14 15:42:00,
2013-02-14 10:47:00,33.4,29.8,29.59,South,180,0.0,4.2,88,0.00,,,0.00,WUHU21636XXSP,2013-02-14 15:47:00,
2013-02-14 10:52:00,33.6,30.2,29.59,South,180,0.0,2.6,88,0.02,,,0.02,WUHU21636XXSP,2013-02-14 15:52:00,
2013-02-14 10:57:00,33.6,30.2,29.59,SSE,157,3.1,3.1,87,0.02,,,0.02,WUHU21636XXSP,2013-02-14 15:57:00,
2013-02-14 11:02:00,33.6,30.2,29.58,SSE,157,0.0,3.1,87,0.02,,,0.02,WUHU21636XXSP,2013-02-14 16:02:00,
2013-02-14 11:07:00,34.0,30.4,29.58,SSE,157,0.0,3.1,87,0.02,,,0.02,WUHU21636XXSP,2013-02-14 16:07:00,
2013-02-14 11:12:00,34.0,30.4,29.58,SSE,157,0.0,0.4,87,0.02,,,0.02,WUHU21636XXSP,2013-02-14 16:12:00,
2013-02-14 11:17:00,34.3,30.7,29.58,SSE,157,0.0,0.4,87,0.02,,,0.02,WUHU21636XXSP,2013-02-14 16:17:00,
2013-02-14 11:22:00,34.5,30.9,29.58,SSE,157,0.0,0.0,87,0.02,,,0.02,WUHU21636XXSP,2013-02-14 16:22:00,
2013-02-14 11:27:00,34.5,30.9,29.58,SSE,157,0.0,0.0,87,0.04,,,0.04,WUHU21636XXSP,2013-02-14 16:27:00,
2013-02-14 11:32:00,34.5,30.9,29.58,SSE,157,0.0,0.0,87,0.04,,,0.04,WUHU21636XXSP,2013-02-14 16:32:00,
2013-02-14 11:39:00,34.5,30.9,29.57,SSE,157,0.0,0.0,87,0.04,,,0.04,WUHU21636XXSP,2013-02-14 16:39:00,
2013-02-14 11:44:00,34.5,30.9,29.57,SSE,157,0.0,0.0,87,0.04,,,0.04,WUHU21636XXSP,2013-02-14 16:44:00,
2013-02-14 11:49:00,34.5,30.9,29.57,SSE,157,0.0,0.0,87,0.04,,,0.04,WUHU21636XXSP,2013-02-14 16:49:00,
2013-02-14 11:54:00,34.5,30.9,29.57,SSE,157,0.0,0.0,87,0.02,,,0.04,WUHU21636XXSP,2013-02-14 16:54:00,
2013-02-14 11:59:00,34.5,30.9,29.57,SSE,157,0.0,0.0,87,0.02,,,0.04,WUHU21636XXSP,2013-02-14 16:59:00,
2013-02-14 12:04:00,34.5,30.9,29.57,SSE,157,0.0,0.0,87,0.02,,,0.04,WUHU21636XXSP,2013-02-14 17:04:00,
2013-02-14 12:09:00,34.5,30.9,29.57,SSE,157,0.0,0.0,87,0.02,,,0.04,WUHU21636XXSP,2013-02-14 17:09:00,
2013-02-14 12:14:00,34.7,31.1,29.57,SSE,157,0.0,0.0,87,0.02,,,0.04,WUHU21636XXSP,2013-02-14 17:14:00,
2013-02-14 12:19:00,34.5,30.9,29.57,SSE,157,0.0,0.0,87,0.02,,,0.04,WUHU21636XXSP,2013-02-14 17:19:00,
2013-02-14 12:24:00,34.3,30.7,29.57,SSE,157,0.0,0.0,87,0.00,,,0.04,WUHU21636XXSP,2013-02-14 17:24:00,
2013-02-14 12:29:00,34.3,30.7,29.57,SSE,157,0.0,0.0,87,0.00,,,0.04,WUHU21636XXSP,2013-02-14 17:29:00,
2013-02-14 12:34:00,34.2,30.6,29.57,SSE,157,0.0,0.0,87,0.00,,,0.04,WUHU21636XXSP,2013-02-14 17:34:00,
2013-02-14 12:39:00,34.2,30.6,29.56,SSE,157,0.0,0.0,87,0.00,,,0.04,WUHU21636XXSP,2013-02-14 17:39:00,
2013-02-14 12:44:00,34.3,30.7,29.56,SSE,157,0.0,0.0,87,0.02,,,0.06,WUHU21636XXSP,2013-02-14 17:44:00,
2013-02-14 12:49:00,34.5,30.9,29.56,SSE,157,0.0,0.0,87,0.02,,,0.06,WUHU21636XXSP,2013-02-14 17:49:00,
2013-02-14 12:54:00,34.5,30.9,29.56,SSE,157,0.0,0.0,87,0.02,,,0.06,WUHU21636XXSP,2013-02-14 17:54:00,
2013-02-14 12:59:00,34.5,30.9,29.56,SSE,157,0.0,0.0,87,0.02,,,0.06,WUHU21636XXSP,2013-02-14 17:59:00,
2013-02-14 13:04:00,34.3,30.7,29.56,SSE,157,0.0,0.0,87,0.02,,,0.06,WUHU21636XXSP,2013-02-14 18:04:00,
2013-02-14 13:09:00,34.3,30.7,29.56,SSE,157,0.0,0.0,87,0.02,,,0.06,WUHU21636XXSP,2013-02-14 18:09:00,
2013-02-14 13:14:00,34.5,30.9,29.56,SSE,157,0.0,0.0,87,0.02,,,0.06,WUHU21636XXSP,2013-02-14 18:14:00,
2013-02-14 13:19:00,34.5,30.9,29.56,SSE,157,0.0,0.0,87,0.02,,,0.06,WUHU21636XXSP,2013-02-14 18:19:00,
2013-02-14 13:24:00,34.5,30.9,29.56,SSE,157,0.0,0.0,87,0.04,,,0.08,WUHU21636XXSP,2013-02-14 18:24:00,
2013-02-14 13:29:00,34.5,30.9,29.56,SSE,157,0.0,0.0,87,0.04,,,0.08,WUHU21636XXSP,2013-02-14 18:29:00,
2013-02-14 13:34:00,34.5,30.9,29.56,SE,135,0.0,0.0,87,0.04,,,0.08,WUHU21636XXSP,2013-02-14 18:34:00,
2013-02-14 13:39:00,34.5,30.9,29.56,SSE,157,0.0,0.0,87,0.04,,,0.08,WUHU21636XXSP,2013-02-14 18:39:00,
2013-02-14 13:44:00,34.5,30.9,29.56,SSE,157,0.0,0.0,87,0.02,,,0.08,WUHU21636XXSP,2013-02-14 18:44:00,
2013-02-14 13:49:00,34.5,30.9,29.55,SSE,157,0.0,0.0,87,0.02,,,0.08,WUHU21636XXSP,2013-02-14 18:49:00,
2013-02-14 13:54:00,34.5,30.9,29.55,SSE,157,0.0,0.0,87,0.02,,,0.08,WUHU21636XXSP,2013-02-14 18:54:00,
2013-02-14 13:59:00,34.5,30.9,29.55,SSE,157,0.0,0.0,87,0.02,,,0.08,WUHU21636XXSP,2013-02-14 18:59:00,
2013-02-14 14:04:00,34.5,30.9,29.55,SSE,157,0.0,0.0,87,0.02,,,0.08,WUHU21636XXSP,2013-02-14 19:04:00,
2013-02-14 14:09:00,34.5,30.9,29.55,SE,135,0.0,0.0,87,0.02,,,0.08,WUHU21636XXSP,2013-02-14 19:09:00,
2013-02-14 14:14:00,34.5,30.9,29.55,SE,135,0.0,0.0,88,0.02,,,0.08,WUHU21636XXSP,2013-02-14 19:14:00,
2013-02-14 14:19:00,35.1,31.6,29.54,SE,135,0.0,0.0,88,0.02,,,0.08,WUHU21636XXSP,2013-02-14 19:19:00,
2013-02-14 14:24:00,35.2,31.8,29.54,SE,135,0.0,0.0,88,0.00,,,0.08,WUHU21636XXSP,2013-02-14 19:24:00,
2013-02-14 14:29:00,35.2,31.8,29.54,SE,135,0.0,0.0,88,0.00,,,0.08,WUHU21636XXSP,2013-02-14 19:29:00,
2013-02-14 14:34:00,35.2,31.8,29.54,SE,135,0.0,0.0,88,0.00,,,0.08,WUHU21636XXSP,2013-02-14 19:34:00,
2013-02-14 14:39:00,35.2,31.8,29.54,SE,135,0.0,0.0,88,0.00,,,0.08,WUHU21636XXSP,2013-02-14 19:39:00,
2013-02-14 14:44:00,35.2,31.8,29.54,SE,135,0.0,0.0,88,0.00,,,0.08,WUHU21636XXSP,2013-02-14 19:44:00,
2013-02-14 14:49:00,35.2,31.8,29.54,SE,135,0.0,0.0,88,0.00,,,0.08,WUHU21636XXSP,2013-02-14 19:49:00,
2013-02-14 14:54:00,35.1,31.6,29.54,SE,135,0.0,0.0,88,0.00,,,0.08,WUHU21636XXSP,2013-02-14 19:54:00,
2013-02-14 14:59:00,35.1,31.6,29.54,SE,135,0.0,0.0,88,0.00,,,0.08,WUHU21636XXSP,2013-02-14 19:59:00,
2013-02-14 15:04:00,34.9,31.5,29.55,SE,135,0.0,0.0,88,0.00,,,0.08,WUHU21636XXSP,2013-02-14 20:04:00,
2013-02-14 15:09:00,34.7,31.3,29.55,SE,135,0.0,0.0,88,0.00,,,0.08,WUHU21636XXSP,2013-02-14 20:09:00,
2013-02-14 15:14:00,34.7,31.3,29.55,SE,135,0.0,0.0,88,0.00,,,0.08,WUHU21636XXSP,2013-02-14 20:14:00,
2013-02-14 15:19:00,34.5,31.1,29.55,SE,135,0.0,0.0,88,0.00,,,0.08,WUHU21636XXSP,2013-02-14 20:19:00,
2013-02-14 15:24:00,34.2,30.6,29.55,SE,135,0.0,0.0,87,0.00,,,0.08,WUHU21636XXSP,2013-02-14 20:24:00,
2013-02-14 15:29:00,34.0,30.6,29.55,SE,135,0.0,0.0,88,0.00,,,0.08,WUHU21636XXSP,2013-02-14 20:29:00,
2013-02-14 15:34:00,33.6,30.2,29.55,SE,135,0.0,0.0,88,0.00,,,0.08,WUHU21636XXSP,2013-02-14 20:34:00,
2013-02-14 15:39:00,33.4,30.2,29.56,SE,135,0.0,2.2,88,0.00,,,0.08,WUHU21636XXSP,2013-02-14 20:39:00,
2013-02-14 15:44:00,33.1,30.0,29.56,SE,135,2.0,2.2,89,0.00,,,0.08,WUHU21636XXSP,2013-02-14 20:44:00,
2013-02-14 15:49:00,32.7,29.8,29.56,NNW,337,6.0,8.2,89,0.00,,,0.08,WUHU21636XXSP,2013-02-14 20:49:00,
2013-02-14 15:54:00,32.5,29.7,29.56,NNW,337,0.0,8.5,89,0.00,,,0.08,WUHU21636XXSP,2013-02-14 20:54:00,
2013-02-14 15:59:00,32.5,29.7,29.56,NNW,337,2.0,8.5,89,0.00,,,0.08,WUHU21636XXSP,2013-02-14 20:59:00,
2013-02-14 16:04:00,32.4,29.5,29.57,NNW,337,2.4,7.3,89,0.00,,,0.08,WUHU21636XXSP,2013-02-14 21:04:00,
2013-02-14 16:09:00,32.2,29.3,29.57,NNW,337,3.1,7.3,89,0.00,,,0.08,WUHU21636XXSP,2013-02-14 21:09:00,
2013-02-14 16:14:00,32.2,29.3,29.57,NNW,337,0.0,4.6,89,0.00,,,0.08,WUHU21636XXSP,2013-02-14 21:14:00,
2013-02-14 16:19:00,32.2,29.3,29.57,NNW,337,0.0,0.0,89,0.00,,,0.08,WUHU21636XXSP,2013-02-14 21:19:00,
2013-02-14 16:24:00,32.0,29.1,29.57,NNW,337,0.0,0.0,88,0.00,,,0.08,WUHU21636XXSP,2013-02-14 21:24:00,
2013-02-14 16:29:00,32.0,28.8,29.57,NNW,337,0.0,0.0,88,0.00,,,0.08,WUHU21636XXSP,2013-02-14 21:29:00,
2013-02-14 16:34:00,31.8,28.6,29.57,NNW,337,0.0,0.0,88,0.00,,,0.08,WUHU21636XXSP,2013-02-14 21:34:00,
2013-02-14 16:39:00,31.6,28.4,29.57,NNW,337,0.0,0.0,88,0.00,,,0.08,WUHU21636XXSP,2013-02-14 21:39:00,
2013-02-14 16:44:00,31.6,28.4,29.57,NNW,337,0.0,0.0,88,0.00,,,0.08,WUHU21636XXSP,2013-02-14 21:44:00,
2013-02-14 16:49:00,31.6,28.4,29.57,NNW,337,0.0,0.0,88,0.00,,,0.08,WUHU21636XXSP,2013-02-14 21:49:00,
2013-02-14 16:55:00,31.6,28.4,29.58,NNW,337,0.0,0.0,88,0.00,,,0.08,WUHU21636XXSP,2013-02-14 21:55:00,
2013-02-14 17:00:00,31.6,28.4,29.58,NNW,337,0.0,0.0,88,0.00,,,0.08,WUHU21636XXSP,2013-02-14 22:00:00,
2013-02-14 17:06:00,31.6,28.4,29.58,NNW,337,0.0,0.0,88,0.00,,,0.08,WUHU21636XXSP,2013-02-14 22:06:00,
2013-02-14 17:11:00,31.6,28.4,29.58,NNW,337,0.0,0.0,88,0.00,,,0.08,WUHU21636XXSP,2013-02-14 22:11:00,
2013-02-14 17:19:00,31.5,28.2,29.59,NNW,337,0.0,0.0,88,0.00,,,0.08,WUHU21636XXSP,2013-02-14 22:19:00,
2013-02-14 17:24:00,31.5,28.2,29.59,NNW,337,0.0,0.0,88,0.00,,,0.08,WUHU21636XXSP,2013-02-14 22:24:00,
2013-02-14 17:29:00,31.3,28.0,29.59,NNW,337,0.0,0.0,88,0.00,,,0.08,WUHU21636XXSP,2013-02-14 22:29:00,
2013-02-14 17:34:00,31.3,28.0,29.59,NNW,337,0.0,0.0,88,0.00,,,0.08,WUHU21636XXSP,2013-02-14 22:34:00,
2013-02-14 17:39:00,31.3,28.0,29.60,NNW,337,0.0,0.0,88,0.00,,,0.08,WUHU21636XXSP,2013-02-14 22:39:00,
2013-02-14 17:44:00,31.1,27.9,29.60,NNW,337,0.0,0.0,88,0.00,,,0.08,WUHU21636XXSP,2013-02-14 22:44:00,
2013-02-14 17:49:00,30.9,27.7,29.60,NNW,337,0.0,0.0,88,0.00,,,0.08,WUHU21636XXSP,2013-02-14 22:49:00,
2013-02-14 17:54:00,30.9,27.7,29.61,NNW,337,0.0,0.0,88,0.00,,,0.08,WUHU21636XXSP,2013-02-14 22:54:00,
2013-02-14 17:59:00,30.9,27.7,29.61,NNW,337,0.0,0.0,88,0.00,,,0.08,WUHU21636XXSP,2013-02-14 22:59:00,
2013-02-14 18:04:00,30.9,27.7,29.62,NNW,337,0.0,0.0,88,0.00,,,0.08,WUHU21636XXSP,2013-02-14 23:04:00,
2013-02-14 18:09:00,30.9,27.7,29.62,NNW,337,0.0,0.0,88,0.00,,,0.08,WUHU21636XXSP,2013-02-14 23:09:00,
2013-02-14 18:14:00,30.7,27.9,29.62,NNW,337,0.0,0.0,89,0.00,,,0.08,WUHU21636XXSP,2013-02-14 23:14:00,
2013-02-14 18:19:00,30.0,27.1,29.63,North,0,0.0,0.0,89,0.00,,,0.08,WUHU21636XXSP,2013-02-14 23:19:00,
2013-02-14 18:24:00,29.8,27.0,29.63,North,0,0.0,0.0,89,0.00,,,0.08,WUHU21636XXSP,2013-02-14 23:24:00,
2013-02-14 18:29:00,29.5,26.6,29.64,North,0,0.0,0.0,89,0.00,,,0.08,WUHU21636XXSP,2013-02-14 23:29:00,
2013-02-14 18:34:00,29.5,26.6,29.64,North,0,0.0,0.0,89,0.00,,,0.08,WUHU21636XXSP,2013-02-14 23:34:00,
2013-02-14 18:39:00,29.1,26.2,29.64,North,0,0.0,0.0,89,0.00,,,0.08,WUHU21636XXSP,2013-02-14 23:39:00,
2013-02-14 18:44:00,28.9,26.1,29.65,NNW,337,0.0,0.0,89,0.00,,,0.08,WUHU21636XXSP,2013-02-14 23:44:00,
2013-02-14 18:49:00,28.8,25.9,29.66,NE,45,0.0,0.0,89,0.00,,,0.08,WUHU21636XXSP,2013-02-14 23:49:00,
2013-02-14 18:54:00,28.4,25.5,29.66,North,0,0.0,0.0,89,0.00,,,0.08,WUHU21636XXSP,2013-02-14 23:54:00,
2013-02-14 18:59:00,28.2,25.3,29.67,NNW,337,0.0,0.0,89,0.00,,,0.08,WUHU21636XXSP,2013-02-14 23:59:00,
2013-02-14 19:04:00,28.2,25.3,29.67,North,0,0.0,0.0,89,0.00,,,0.08,WUHU21636XXSP,2013-02-15 00:04:00,
2013-02-14 19:09:00,28.2,25.3,29.67,NNE,22,0.0,0.0,89,0.00,,,0.08,WUHU21636XXSP,2013-02-15 00:09:00,
2013-02-14 19:14:00,28.2,25.3,29.67,North,0,0.0,0.0,89,0.00,,,0.08,WUHU21636XXSP,2013-02-15 00:14:00,
2013-02-14 19:19:00,28.2,25.3,29.68,NNW,337,0.0,0.0,89,0.00,,,0.08,WUHU21636XXSP,2013-02-15 00:19:00,
2013-02-14 19:24:00,28.0,25.2,29.68,North,0,0.0,0.0,89,0.00,,,0.08,WUHU21636XXSP,2013-02-15 00:24:00,
2013-02-14 19:29:00,28.0,25.2,29.69,North,0,0.0,0.0,89,0.00,,,0.08,WUHU21636XXSP,2013-02-15 00:29:00,
2013-02-14 19:34:00,28.0,25.2,29.69,North,0,0.0,0.0,89,0.00,,,0.08,WUHU21636XXSP,2013-02-15 00:34:00,
2013-02-14 19:39:00,27.9,25.0,29.69,NNE,22,0.0,0.0,89,0.00,,,0.08,WUHU21636XXSP,2013-02-15 00:39:00,
2013-02-14 19:44:00,27.3,24.4,29.69,NE,45,0.0,0.0,89,0.00,,,0.08,WUHU21636XXSP,2013-02-15 00:44:00,
2013-02-14 19:49:00,27.1,24.3,29.70,North,0,0.0,0.0,89,0.00,,,0.08,WUHU21636XXSP,2013-02-15 00:49:00,
2013-02-14 19:54:00,27.1,24.3,29.70,NNW,337,0.0,0.0,89,0.00,,,0.08,WUHU21636XXSP,2013-02-15 00:54:00,
2013-02-14 19:59:00,27.1,24.3,29.70,North,0,0.0,0.0,89,0.00,,,0.08,WUHU21636XXSP,2013-02-15 00:59:00,
2013-02-14 20:04:00,27.1,24.3,29.70,NNE,22,0.0,0.0,89,0.00,,,0.08,WUHU21636XXSP,2013-02-15 01:04:00,
2013-02-14 20:09:00,26.8,23.9,29.70,NNW,337,0.0,0.0,89,0.00,,,0.08,WUHU21636XXSP,2013-02-15 01:09:00,
2013-02-14 20:14:00,26.8,23.9,29.71,NNW,337,0.0,0.0,89,0.00,,,0.08,WUHU21636XXSP,2013-02-15 01:14:00,
2013-02-14 20:19:00,26.2,23.0,29.72,NNE,22,0.0,0.0,88,0.00,,,0.08,WUHU21636XXSP,2013-02-15 01:19:00,
2013-02-14 20:24:00,26.2,23.0,29.72,NNW,337,0.0,0.0,88,0.00,,,0.08,WUHU21636XXSP,2013-02-15 01:24:00,
2013-02-14 20:29:00,25.9,22.6,29.72,North,0,0.0,0.0,88,0.00,,,0.08,WUHU21636XXSP,2013-02-15 01:29:00,
2013-02-14 20:34:00,25.9,22.6,29.72,North,0,0.0,0.0,88,0.00,,,0.08,WUHU21636XXSP,2013-02-15 01:34:00,
2013-02-14 20:39:00,25.5,22.3,29.73,NNW,337,0.0,0.0,88,0.00,,,0.08,WUHU21636XXSP,2013-02-15 01:39:00,
2013-02-14 20:44:00,25.3,22.1,29.73,NNW,337,0.0,0.0,88,0.00,,,0.08,WUHU21636XXSP,2013-02-15 01:44:00,
2013-02-14 20:49:00,24.8,21.7,29.74,NNW,337,0.0,0.0,88,0.00,,,0.08,WUHU21636XXSP,2013-02-15 01:49:00,
2013-02-14 20:54:00,24.3,21.2,29.74,NW,315,0.0,0.0,88,0.00,,,0.08,WUHU21636XXSP,2013-02-15 01:54:00,
2013-02-14 20:59:00,23.9,20.8,29.75,NNW,337,0.0,0.0,88,0.00,,,0.08,WUHU21636XXSP,2013-02-15 01:59:00,
2013-02-14 21:04:00,23.7,20.7,29.75,NNW,337,0.0,0.0,88,0.00,,,0.08,WUHU21636XXSP,2013-02-15 02:04:00,
2013-02-14 21:09:00,23.7,20.7,29.75,NW,315,0.0,0.0,88,0.00,,,0.08,WUHU21636XXSP,2013-02-15 02:09:00,
2013-02-14 21:14:00,23.5,20.5,29.75,NNW,337,0.0,0.0,88,0.00,,,0.08,WUHU21636XXSP,2013-02-15 02:14:00,
2013-02-14 21:19:00,23.5,20.5,29.75,NW,315,0.0,0.0,88,0.00,,,0.08,WUHU21636XXSP,2013-02-15 02:19:00,
2013-02-14 21:24:00,23.2,20.1,29.76,North,0,0.0,0.0,88,0.00,,,0.08,WUHU21636XXSP,2013-02-15 02:24:00,
2013-02-14 21:29:00,23.2,20.1,29.76,NNW,337,0.0,0.0,88,0.00,,,0.08,WUHU21636XXSP,2013-02-15 02:29:00,
2013-02-14 21:34:00,22.8,19.4,29.76,NW,315,0.0,0.0,87,0.00,,,0.08,WUHU21636XXSP,2013-02-15 02:34:00,
2013-02-14 21:39:00,22.8,19.4,29.77,North,0,0.0,0.0,87,0.00,,,0.08,WUHU21636XXSP,2013-02-15 02:39:00,
2013-02-14 21:44:00,22.8,19.4,29.77,North,0,0.0,0.0,87,0.00,,,0.08,WUHU21636XXSP,2013-02-15 02:44:00,
2013-02-14 21:49:00,22.8,19.4,29.77,NW,315,0.0,0.0,87,0.00,,,0.08,WUHU21636XXSP,2013-02-15 02:49:00,
2013-02-14 21:54:00,22.8,19.4,29.77,NW,315,0.0,0.0,88,0.00,,,0.08,WUHU21636XXSP,2013-02-15 02:54:00,
2013-02-14 21:59:00,22.8,19.4,29.78,NW,315,0.0,0.0,88,0.00,,,0.08,WUHU21636XXSP,2013-02-15 02:59:00,
2013-02-14 22:04:00,22.6,19.6,29.78,NW,315,0.0,0.0,88,0.00,,,0.08,WUHU21636XXSP,2013-02-15 03:04:00,
2013-02-14 22:09:00,22.6,19.6,29.78,NNW,337,0.0,0.0,87,0.00,,,0.08,WUHU21636XXSP,2013-02-15 03:09:00,
2013-02-14 22:14:00,22.6,19.6,29.78,NW,315,0.0,0.0,87,0.00,,,0.08,WUHU21636XXSP,2013-02-15 03:14:00,
2013-02-14 22:19:00,22.5,19.0,29.79,NW,315,0.0,0.0,87,0.00,,,0.08,WUHU21636XXSP,2013-02-15 03:19:00,
2013-02-14 22:24:00,22.6,19.0,29.79,NNW,337,0.0,0.0,86,0.00,,,0.08,WUHU21636XXSP,2013-02-15 03:24:00,
2013-02-14 22:29:00,22.6,19.0,29.79,NNW,337,0.0,0.0,85,0.00,,,0.08,WUHU21636XXSP,2013-02-15 03:29:00,
2013-02-14 22:34:00,22.6,19.0,29.79,NNW,337,0.0,0.0,85,0.00,,,0.08,WUHU21636XXSP,2013-02-15 03:34:00,
2013-02-14 22:39:00,22.6,19.0,29.79,NNW,337,0.0,0.0,86,0.00,,,0.08,WUHU21636XXSP,2013-02-15 03:39:00,
2013-02-14 22:44:00,22.6,18.7,29.79,NNW,337,0.0,0.0,85,0.00,,,0.08,WUHU21636XXSP,2013-02-15 03:44:00,
2013-02-14 22:49:00,22.6,18.7,29.79,NNW,337,0.0,0.0,85,0.00,,,0.08,WUHU21636XXSP,2013-02-15 03:49:00,
2013-02-14 22:54:00,22.3,18.3,29.79,NW,315,0.0,0.0,85,0.00,,,0.08,WUHU21636XXSP,2013-02-15 03:54:00,
2013-02-14 22:59:00,22.3,18.3,29.79,NNW,337,0.0,0.0,85,0.00,,,0.08,WUHU21636XXSP,2013-02-15 03:59:00,
2013-02-14 23:04:00,22.3,18.3,29.79,NNW,337,0.0,0.0,85,0.00,,,0.08,WUHU21636XXSP,2013-02-15 04:04:00,
2013-02-14 23:09:00,22.1,18.5,29.80,NNW,337,0.0,0.0,86,0.00,,,0.08,WUHU21636XXSP,2013-02-15 04:09:00,
2013-02-14 23:14:00,21.7,18.1,29.80,NNW,337,0.0,0.0,87,0.00,,,0.08,WUHU21636XXSP,2013-02-15 04:14:00,
2013-02-14 23:19:00,21.7,18.1,29.80,WNW,292,0.0,0.0,87,0.00,,,0.08,WUHU21636XXSP,2013-02-15 04:19:00,
2013-02-14 23:24:00,21.7,18.1,29.80,NNW,337,0.0,0.0,87,0.00,,,0.08,WUHU21636XXSP,2013-02-15 04:24:00,
2013-02-14 23:29:00,21.7,18.1,29.80,NNW,337,0.0,0.0,86,0.00,,,0.08,WUHU21636XXSP,2013-02-15 04:29:00,
2013-02-14 23:34:00,21.7,18.1,29.80,NNW,337,0.0,0.0,86,0.00,,,0.08,WUHU21636XXSP,2013-02-15 04:34:00,
2013-02-14 23:39:00,21.7,18.1,29.80,NNW,337,0.0,0.0,86,0.00,,,0.08,WUHU21636XXSP,2013-02-15 04:39:00,
2013-02-14 23:44:00,21.7,18.1,29.80,NW,315,0.0,0.0,86,0.00,,,0.08,WUHU21636XXSP,2013-02-15 04:44:00,
2013-02-14 23:49:00,21.7,18.1,29.80,NNW,337,0.0,0.0,86,0.00,,,0.08,WUHU21636XXSP,2013-02-15 04:49:00,
2013-02-14 23:54:00,21.9,18.0,29.80,NW,315,0.0,0.0,85,0.00,,,0.08,WUHU21636XXSP,2013-02-15 04:54:00,
2013-02-14 23:59:00,21.9,18.0,29.80,NW,315,0.0,0.0,85,0.00,,,0.08,WUHU21636XXSP,2013-02-15 04:59:00,